createdAt,value
2018-12-23T00:04:07.357Z,8.75
2018-12-23T00:09:10.793Z,8.20
2018-12-23T00:14:14.129Z,12.20
2018-12-23T00:19:17.481Z,9.00
2018-12-23T00:24:20.862Z,8.60
2018-12-23T00:29:24.186Z,9.50
2018-12-23T00:34:27.502Z,10.50
2018-12-23T00:39:30.814Z,9.00
2018-12-23T00:44:34.147Z,10.00
2018-12-23T00:49:37.482Z,9.75
2018-12-23T00:54:40.794Z,10.60
2018-12-23T00:59:44.098Z,8.50
2018-12-23T01:04:47.481Z,8.20
2018-12-23T01:09:50.792Z,9.00
2018-12-23T01:14:54.109Z,7.00
2018-12-23T01:19:57.418Z,8.00
2018-12-23T01:25:00.739Z,6.80
2018-12-23T01:30:04.888Z,9.50
2018-12-23T01:35:08.277Z,9.20
2018-12-23T01:40:11.794Z,8.00
2018-12-23T01:45:15.110Z,7.50
2018-12-23T01:50:18.566Z,8.40
2018-12-23T01:55:21.885Z,9.50
2018-12-23T02:00:25.491Z,8.25
2018-12-23T02:05:28.867Z,8.00
2018-12-23T02:10:32.167Z,7.50
2018-12-23T02:15:35.486Z,7.80
2018-12-23T02:20:38.786Z,7.80
2018-12-23T02:25:42.081Z,8.75
2018-12-23T02:30:45.397Z,8.60
2018-12-23T02:35:55.512Z,8.75
2018-12-23T02:40:54.198Z,7.50
2018-12-23T02:45:57.642Z,8.00
2018-12-23T02:51:01.093Z,8.00
2018-12-23T02:56:04.580Z,6.25
2018-12-23T03:01:08.118Z,7.00
2018-12-23T03:06:11.542Z,7.60
2018-12-23T03:11:14.870Z,7.25
2018-12-23T03:16:18.589Z,7.75
2018-12-23T03:21:21.996Z,8.20
2018-12-23T03:26:25.279Z,6.25
2018-12-23T03:31:28.645Z,7.00
2018-12-23T03:36:32.028Z,7.00
2018-12-23T03:41:35.541Z,6.75
2018-12-23T03:46:38.868Z,6.00
2018-12-23T03:51:42.258Z,6.00
2018-12-23T03:56:45.585Z,5.60
2018-12-23T04:01:48.943Z,5.40
2018-12-23T04:06:52.318Z,6.00
2018-12-23T04:11:55.624Z,7.00
2018-12-23T04:17:00.537Z,6.00
2018-12-23T04:22:04.010Z,6.60
2018-12-23T04:27:07.336Z,6.00
2018-12-23T04:32:10.708Z,6.00
2018-12-23T04:37:14.041Z,5.25
2018-12-23T04:42:17.370Z,5.25
2018-12-23T04:47:20.846Z,6.20
2018-12-23T04:52:24.154Z,6.00
2018-12-23T04:57:27.472Z,4.75
2018-12-23T05:02:30.789Z,6.00
2018-12-23T05:07:34.362Z,6.50
2018-12-23T05:12:37.730Z,5.00
2018-12-23T05:17:41.074Z,5.50
2018-12-23T05:22:44.470Z,5.60
2018-12-23T05:27:47.796Z,4.80
2018-12-23T05:32:51.094Z,4.00
2018-12-23T05:37:54.395Z,5.25
2018-12-23T05:42:57.683Z,5.00
2018-12-23T05:48:01.094Z,5.75
2018-12-23T05:53:04.555Z,4.00
2018-12-23T05:58:07.850Z,4.80
2018-12-23T06:03:11.205Z,4.00
2018-12-23T06:08:14.546Z,4.75
2018-12-23T06:13:17.893Z,5.00
2018-12-23T06:18:21.253Z,4.25
2018-12-23T06:23:24.568Z,4.40
2018-12-23T06:28:27.921Z,3.20
2018-12-23T06:33:31.266Z,5.00
2018-12-23T06:38:34.683Z,4.00
2018-12-23T06:43:38.031Z,5.00
2018-12-23T06:48:41.374Z,3.60
2018-12-23T06:53:44.750Z,2.80
2018-12-23T06:58:48.054Z,4.60
2018-12-23T07:03:51.345Z,4.25
2018-12-23T07:08:54.685Z,4.00
2018-12-23T07:13:58.010Z,4.20
2018-12-23T07:19:01.309Z,3.00
2018-12-23T07:24:04.659Z,3.00
2018-12-23T07:29:07.999Z,4.20
2018-12-23T07:34:11.314Z,3.80
2018-12-23T07:39:14.616Z,2.75
2018-12-23T07:44:18.013Z,3.00
2018-12-23T07:49:21.316Z,3.75
2018-12-23T07:54:24.599Z,4.00
2018-12-23T07:59:27.968Z,3.50
2018-12-23T08:04:31.269Z,4.00
2018-12-23T08:10:03.533Z,4.00
2018-12-23T08:15:08.391Z,5.00
2018-12-23T08:20:12.883Z,5.40
2018-12-23T08:25:17.475Z,4.20
2018-12-23T08:30:22.089Z,3.50
2018-12-23T08:35:26.534Z,4.80
2018-12-23T08:40:31.002Z,4.40
2018-12-23T08:45:35.481Z,3.25
2018-12-23T08:50:40.161Z,3.75
2018-12-23T08:55:44.702Z,2.20
2018-12-23T09:00:49.323Z,3.00
2018-12-23T09:05:53.912Z,3.50
2018-12-23T09:10:58.434Z,3.00
2018-12-23T09:16:02.935Z,3.20
2018-12-23T09:21:07.379Z,2.00
2018-12-23T09:26:11.844Z,2.00
2018-12-23T09:31:16.305Z,2.00
2018-12-23T09:36:20.759Z,3.00
2018-12-23T09:41:25.396Z,2.60
2018-12-23T09:46:30.222Z,2.50
2018-12-23T09:51:34.714Z,2.80
2018-12-23T09:56:39.259Z,1.80
2018-12-23T10:01:43.699Z,2.00
2018-12-23T10:06:48.187Z,2.75
2018-12-23T10:11:52.657Z,2.60
2018-12-23T10:16:57.166Z,2.25
2018-12-23T10:22:01.617Z,2.20
2018-12-23T10:27:06.059Z,3.00
2018-12-23T10:32:10.608Z,3.00
2018-12-23T10:37:16.073Z,3.00
2018-12-23T10:42:20.558Z,3.40
2018-12-23T10:47:25.000Z,3.00
2018-12-23T10:52:30.136Z,1.50
2018-12-23T10:57:34.565Z,2.40
2018-12-23T11:02:39.101Z,2.50
2018-12-23T11:07:43.584Z,2.00
2018-12-23T11:12:48.031Z,1.50
2018-12-23T11:17:52.578Z,2.50
2018-12-23T11:22:57.183Z,1.50
2018-12-23T11:28:01.658Z,1.60
2018-12-23T11:33:06.219Z,1.50
2018-12-23T11:38:12.146Z,2.00
2018-12-23T11:43:16.620Z,1.40
2018-12-23T11:48:21.062Z,2.25
2018-12-23T11:53:25.529Z,2.75
2018-12-23T11:58:30.124Z,1.50
2018-12-23T12:03:34.581Z,3.60
2018-12-23T12:08:43.760Z,3.50
2018-12-23T12:13:45.394Z,2.00
2018-12-23T12:18:49.903Z,2.80
2018-12-23T12:23:54.380Z,2.00
2018-12-23T12:28:58.854Z,2.60
2018-12-23T12:34:03.331Z,2.00
2018-12-23T12:39:09.082Z,2.00
2018-12-23T12:44:14.141Z,2.50
2018-12-23T12:49:18.593Z,2.00
2018-12-23T12:54:23.031Z,2.00
2018-12-23T12:59:27.534Z,1.75
2018-12-23T13:04:32.037Z,1.00
2018-12-23T13:09:36.541Z,2.00
2018-12-23T13:14:41.047Z,1.60
2018-12-23T13:19:47.310Z,2.00
2018-12-23T13:24:51.850Z,1.60
2018-12-23T13:29:56.317Z,1.25
2018-12-23T13:35:00.830Z,1.80
2018-12-23T13:40:34.262Z,1.00
2018-12-23T13:46:27.982Z,1.60
2018-12-23T13:52:09.707Z,1.00
2018-12-23T13:57:49.209Z,3.00
2018-12-23T14:03:18.324Z,2.00
2018-12-23T14:08:49.938Z,0.75
2018-12-23T14:13:54.375Z,1.75
2018-12-23T14:18:59.003Z,0.00
2018-12-23T14:24:03.454Z,2.00
2018-12-23T14:29:07.922Z,1.00
2018-12-23T14:34:13.866Z,2.75
2018-12-23T14:44:36.101Z,0.00
2018-12-23T14:49:40.564Z,1.00
2018-12-23T14:54:44.993Z,2.00
2018-12-23T14:59:49.464Z,1.00
2018-12-23T15:04:53.901Z,1.25
2018-12-23T15:09:58.372Z,1.00
2018-12-23T15:15:02.816Z,2.00
2018-12-23T15:20:07.910Z,1.40
2018-12-23T15:25:12.396Z,0.60
2018-12-23T15:30:16.885Z,0.80
2018-12-23T15:35:21.320Z,2.00
2018-12-23T15:40:25.746Z,0.60
2018-12-23T15:45:30.181Z,1.00
2018-12-23T15:50:34.616Z,1.00
2018-12-23T15:55:39.040Z,1.00
2018-12-23T16:00:43.483Z,0.00
2018-12-23T16:05:48.005Z,0.00
2018-12-23T16:10:52.703Z,0.25
2018-12-23T16:15:57.149Z,1.00
2018-12-23T16:21:01.581Z,0.00
2018-12-23T16:26:06.126Z,0.00
2018-12-23T16:31:10.626Z,2.00
2018-12-23T16:36:15.170Z,0.00
2018-12-23T16:41:19.616Z,0.00
2018-12-23T16:46:24.106Z,1.00
2018-12-23T16:51:28.619Z,0.00
2018-12-23T16:56:33.107Z,0.50
2018-12-23T17:01:37.554Z,1.25
2018-12-23T17:06:42.014Z,0.00
2018-12-23T17:11:46.478Z,0.00
2018-12-23T17:16:51.041Z,1.00
2018-12-23T17:21:55.469Z,0.40
2018-12-23T17:26:59.898Z,1.00
2018-12-23T17:32:04.369Z,0.00
2018-12-23T17:37:08.804Z,1.00
2018-12-23T17:42:13.251Z,1.00
2018-12-23T17:47:17.699Z,0.00
2018-12-23T17:52:23.379Z,0.25
2018-12-23T17:57:28.969Z,0.00
2018-12-23T18:02:33.451Z,0.00
2018-12-23T18:07:38.885Z,0.00
2018-12-23T18:12:43.823Z,0.40
2018-12-23T18:17:48.343Z,1.00
2018-12-23T18:22:52.811Z,2.00
2018-12-23T18:27:57.318Z,16.80
2018-12-23T18:33:02.180Z,19.50
2018-12-23T18:38:06.644Z,19.00
2018-12-23T18:43:11.115Z,17.00
2018-12-23T18:48:15.595Z,18.00
2018-12-23T18:53:20.046Z,16.75
2018-12-23T18:58:24.514Z,18.00
2018-12-23T19:03:28.966Z,15.60
2018-12-23T19:08:59.654Z,19.00
2018-12-23T19:14:46.441Z,17.25
2018-12-23T19:20:26.941Z,17.00
2018-12-23T19:26:08.213Z,15.00
2018-12-23T19:31:48.764Z,16.50
2018-12-23T19:37:25.266Z,32.00
2018-12-23T19:43:16.544Z,52.50
2018-12-23T19:49:11.440Z,111.75
2018-12-23T19:54:57.037Z,106.25
2018-12-23T20:00:32.357Z,99.50
2018-12-23T20:06:16.869Z,91.25
2018-12-23T20:12:00.711Z,89.25
2018-12-23T20:17:20.730Z,84.25
2018-12-23T20:23:21.662Z,84.00
2018-12-23T20:29:08.552Z,74.25
2018-12-23T20:34:52.590Z,77.80
2018-12-23T20:40:38.927Z,77.25
2018-12-23T20:46:23.540Z,73.75
2018-12-23T20:52:01.011Z,75.40
2018-12-23T20:57:26.242Z,71.00
2018-12-23T21:03:33.265Z,71.50
2018-12-23T21:09:27.537Z,68.50
2018-12-23T21:14:58.784Z,69.75
2018-12-23T21:21:08.955Z,68.25
2018-12-23T21:26:41.853Z,67.60
2018-12-23T21:32:23.341Z,68.50
2018-12-23T21:38:13.199Z,65.50
2018-12-23T21:43:44.439Z,69.20
2018-12-23T21:49:24.752Z,68.50
2018-12-23T21:55:34.704Z,62.50
2018-12-23T22:01:31.205Z,65.75
2018-12-23T22:07:24.983Z,65.50
2018-12-23T22:12:59.601Z,62.60
2018-12-23T22:18:04.045Z,64.50
2018-12-23T22:23:08.488Z,61.80
2018-12-23T22:28:12.965Z,61.20
2018-12-23T22:33:17.438Z,64.25
2018-12-23T22:38:21.910Z,64.60
2018-12-23T22:43:26.365Z,60.75
2018-12-23T22:48:31.082Z,58.50
2018-12-23T22:53:35.550Z,63.20
2018-12-23T22:58:39.980Z,59.25
2018-12-23T23:03:44.466Z,59.50
2018-12-23T23:08:53.199Z,58.25
2018-12-23T23:13:57.742Z,59.00
2018-12-23T23:24:27.681Z,56.50
2018-12-23T23:29:32.200Z,57.00
2018-12-23T23:34:36.685Z,56.60
2018-12-23T23:39:41.305Z,54.50
2018-12-23T23:44:45.952Z,54.50
2018-12-23T23:49:51.554Z,53.00
2018-12-23T23:54:56.185Z,52.40
